Burton, United Kingdom
Current Conditions -  °F | °C
As of 10:50 AM on Saturday 25 Oct 2014 (Local Time) from EGXP Reporting Station
Scattered Clouds Scattered Clouds  
Wind Chill: 50°   Ceiling: Unl
Heat Index: 50°   Visibility: 6mi
Dew Point: 48°   Wind: 18mph
Humidity: 94%   Direction: 220°SW
Pressure: 29.97"   Gusts: NA
Location:  53.27°N, 0.57°W
Report Text: EGXP 250950Z AUTO 22016KT 9999 // SCT041/// 10/09 Q1015
Loading
Personal Weather Stations






























Interactive Weather Map
Tropical Storm Tracking
New forecast layout! Learn more

10-Day Weather Forecast

Advertisements
Track Severe Weather on mobile